Time;durP1;ratioP1;P1;durP2;ratioP2;P2;SDS_P1;SDS_P2;PMS_P1;PMS_P2;Temp;Humidity;BMP_temperature;BMP_pressure;BME280_temperature;BME280_humidity;BME280_pressure;Samples;Min_cycle;Max_cycle;Signal;HPM_P1;HPM_P2
2022/04/04 00:00:42;;;;;;;9.32;7.55;;;;;;;;;;5053326;28;20431;-71
2022/04/04 00:03:08;;;;;;;10.48;7.40;;;;;;;;;;5053186;28;20686;-72
2022/04/04 00:05:34;;;;;;;9.38;7.68;;;;;;;;;;5053280;28;20213;-73
2022/04/04 00:08:00;;;;;;;9.80;7.55;;;;;;;;;;5053217;28;20213;-82
2022/04/04 00:10:26;;;;;;;11.87;7.70;;;;;;;;;;5052086;28;20180;-64
2022/04/04 00:12:52;;;;;;;11.45;7.40;;;;;;;;;;5053323;28;20456;-70
2022/04/04 00:15:18;;;;;;;10.83;7.23;;;;;;;;;;5053257;28;20571;-74
2022/04/04 00:17:47;;;;;;;9.52;7.18;;;;;;;;;;5053280;28;20402;-81
2022/04/04 00:20:13;;;;;;;10.70;7.90;;;;;;;;;;5053127;28;20700;-81
2022/04/04 00:22:40;;;;;;;9.82;7.05;;;;;;;;;;5053192;28;20182;-81
2022/04/04 00:25:06;;;;;;;10.27;7.70;;;;;;;;;;5053118;28;20595;-64
2022/04/04 00:27:32;;;;;;;10.63;7.20;;;;;;;;;;5052553;28;20203;-64
2022/04/04 00:29:58;;;;;;;12.68;7.35;;;;;;;;;;5052928;28;20200;-78
2022/04/04 00:32:24;;;;;;;13.60;7.35;;;;;;;;;;5053086;28;20172;-69
2022/04/04 00:34:50;;;;;;;9.20;6.13;;;;;;;;;;5053046;28;20177;-66
2022/04/04 00:37:16;;;;;;;12.70;7.60;;;;;;;;;;5053008;28;20399;-67
2022/04/04 00:39:42;;;;;;;9.10;6.13;;;;;;;;;;5052992;28;20422;-66
2022/04/04 00:42:08;;;;;;;11.00;7.10;;;;;;;;;;5053013;28;20486;-81
2022/04/04 00:44:34;;;;;;;9.80;6.87;;;;;;;;;;5051596;28;20455;-65
2022/04/04 00:47:01;;;;;;;11.15;7.18;;;;;;;;;;5051675;28;20484;-77
2022/04/04 00:49:27;;;;;;;11.48;7.32;;;;;;;;;;5052937;28;20227;-82
2022/04/04 00:51:53;;;;;;;10.73;7.47;;;;;;;;;;5052986;28;20184;-78
2022/04/04 00:54:20;;;;;;;10.07;6.72;;;;;;;;;;5052881;28;20610;-76
2022/04/04 00:56:46;;;;;;;10.02;7.65;;;;;;;;;;5052896;28;20278;-81
2022/04/04 00:59:16;;;;;;;11.73;7.85;;;;;;;;;;5052935;28;20585;-75
2022/04/04 01:01:43;;;;;;;10.25;7.07;;;;;;;;;;5052707;28;20210;-78
2022/04/04 01:04:11;;;;;;;10.43;7.47;;;;;;;;;;5051282;28;20227;-72
2022/04/04 01:06:38;;;;;;;11.55;7.22;;;;;;;;;;5051510;28;20582;-63
2022/04/04 01:09:04;;;;;;;10.30;7.63;;;;;;;;;;5052743;28;20176;-72
2022/04/04 01:11:31;;;;;;;11.27;6.93;;;;;;;;;;5052815;28;20172;-83
2022/04/04 01:13:57;;;;;;;9.82;7.30;;;;;;;;;;5052621;28;20176;-68
2022/04/04 01:16:23;;;;;;;11.60;6.93;;;;;;;;;;5052774;28;20178;-77
2022/04/04 01:18:49;;;;;;;11.43;7.70;;;;;;;;;;5052552;28;20402;-70
2022/04/04 01:21:21;;;;;;;11.07;7.20;;;;;;;;;;5052543;28;20913;-62
2022/04/04 01:23:49;;;;;;;8.07;6.05;;;;;;;;;;5052622;28;20407;-80
2022/04/04 01:26:15;;;;;;;10.30;6.95;;;;;;;;;;5052509;28;20687;-66
2022/04/04 01:28:41;;;;;;;10.52;7.35;;;;;;;;;;5052365;28;20649;-65
2022/04/04 01:31:08;;;;;;;11.13;7.10;;;;;;;;;;5052273;28;20671;-63
2022/04/04 01:33:34;;;;;;;10.68;7.20;;;;;;;;;;5052515;28;20174;-64
2022/04/04 01:36:00;;;;;;;9.38;7.13;;;;;;;;;;5052441;28;20637;-68
2022/04/04 01:38:27;;;;;;;9.50;6.88;;;;;;;;;;5052385;28;20200;-70
2022/04/04 01:40:53;;;;;;;11.20;6.90;;;;;;;;;;5054277;28;20173;-73
2022/04/04 01:43:20;;;;;;;12.50;7.70;;;;;;;;;;5055979;28;20156;-74
2022/04/04 01:48:37;;;;;;;10.00;6.60;;;;;;;;;;5056166;28;20528;-63
2022/04/04 01:51:04;;;;;;;10.23;6.40;;;;;;;;;;5055793;28;20260;-79
2022/04/04 01:53:31;;;;;;;11.98;7.00;;;;;;;;;;5055761;28;20404;-62
2022/04/04 01:55:59;;;;;;;8.20;6.30;;;;;;;;;;5055647;28;20517;-74
2022/04/04 01:58:25;;;;;;;8.35;6.53;;;;;;;;;;5055698;28;20166;-68
2022/04/04 02:00:53;;;;;;;10.10;7.10;;;;;;;;;;5054151;28;20671;-67
2022/04/04 02:03:19;;;;;;;12.02;7.65;;;;;;;;;;5055440;28;20458;-69
2022/04/04 02:05:45;;;;;;;14.07;8.13;;;;;;;;;;5055524;28;20299;-75
2022/04/04 02:08:11;;;;;;;9.77;7.15;;;;;;;;;;5055363;28;20212;-78
2022/04/04 02:10:38;;;;;;;10.07;7.57;;;;;;;;;;5055426;28;20174;-79
2022/04/04 02:13:04;;;;;;;11.95;6.68;;;;;;;;;;5055422;28;20495;-64
2022/04/04 02:15:30;;;;;;;9.20;6.50;;;;;;;;;;5055387;28;20252;-62
2022/04/04 02:17:56;;;;;;;10.23;7.65;;;;;;;;;;5055347;28;20407;-68
2022/04/04 02:20:22;;;;;;;10.82;6.35;;;;;;;;;;5053853;28;20689;-76
2022/04/04 02:22:49;;;;;;;12.05;6.55;;;;;;;;;;5055212;28;20175;-65
2022/04/04 02:25:15;;;;;;;9.10;6.63;;;;;;;;;;5055058;28;20285;-65
2022/04/04 02:27:41;;;;;;;8.88;6.30;;;;;;;;;;5055001;28;20213;-62
2022/04/04 02:30:08;;;;;;;12.93;6.78;;;;;;;;;;5054971;28;20189;-75
2022/04/04 02:32:34;;;;;;;8.23;6.10;;;;;;;;;;5055117;28;20184;-75
2022/04/04 02:35:00;;;;;;;10.82;7.13;;;;;;;;;;5054947;28;20624;-62
2022/04/04 02:37:26;;;;;;;9.30;6.33;;;;;;;;;;5054953;28;20180;-63
2022/04/04 02:39:52;;;;;;;7.70;5.87;;;;;;;;;;5053625;28;20402;-63
2022/04/04 02:42:18;;;;;;;8.30;5.87;;;;;;;;;;5054940;28;20938;-62
2022/04/04 02:44:44;;;;;;;10.63;5.30;;;;;;;;;;5054672;28;20524;-76
2022/04/04 02:47:10;;;;;;;9.03;5.93;;;;;;;;;;5054735;28;20413;-69
2022/04/04 02:49:36;;;;;;;9.87;6.30;;;;;;;;;;5054652;28;20431;-71
2022/04/04 02:52:02;;;;;;;10.00;6.20;;;;;;;;;;5054241;28;20445;-75
2022/04/04 02:54:28;;;;;;;8.50;5.63;;;;;;;;;;5054592;28;20904;-75
2022/04/04 02:56:54;;;;;;;10.00;6.37;;;;;;;;;;5054555;28;20168;-63
2022/04/04 02:59:20;;;;;;;6.73;5.67;;;;;;;;;;5053001;28;20422;-62
2022/04/04 03:01:48;;;;;;;8.83;6.17;;;;;;;;;;5054450;28;20415;-63
2022/04/04 03:04:18;;;;;;;9.20;5.90;;;;;;;;;;5054278;28;20829;-61
2022/04/04 03:06:44;;;;;;;8.02;5.28;;;;;;;;;;5054259;28;20679;-66
2022/04/04 03:09:11;;;;;;;6.65;4.95;;;;;;;;;;5054277;28;20176;-62
2022/04/04 03:11:37;;;;;;;10.38;6.15;;;;;;;;;;5054226;28;20176;-62
2022/04/04 03:14:04;;;;;;;8.98;5.70;;;;;;;;;;5054248;28;20191;-65
2022/04/04 03:16:30;;;;;;;6.75;5.22;;;;;;;;;;5054152;28;20171;-65
2022/04/04 03:18:58;;;;;;;9.17;4.80;;;;;;;;;;5054034;28;20505;-62
2022/04/04 03:21:25;;;;;;;7.10;4.80;;;;;;;;;;5053899;28;20460;-62
2022/04/04 03:23:51;;;;;;;7.63;5.30;;;;;;;;;;5054122;28;20172;-71
2022/04/04 03:26:17;;;;;;;7.22;4.90;;;;;;;;;;5053435;28;20220;-62
2022/04/04 03:28:43;;;;;;;7.03;5.00;;;;;;;;;;5053935;28;20171;-62
2022/04/04 03:31:09;;;;;;;8.57;5.80;;;;;;;;;;5053613;28;20781;-62
2022/04/04 03:33:36;;;;;;;8.30;4.80;;;;;;;;;;5053913;28;20407;-70
2022/04/04 03:36:02;;;;;;;6.82;5.05;;;;;;;;;;5053798;28;20417;-65
2022/04/04 03:38:29;;;;;;;7.20;4.80;;;;;;;;;;5053797;28;20176;-66
2022/04/04 03:40:55;;;;;;;6.80;4.88;;;;;;;;;;5053565;28;20511;-62
2022/04/04 03:43:21;;;;;;;6.72;5.07;;;;;;;;;;5053683;28;20677;-61
2022/04/04 03:45:47;;;;;;;10.68;5.32;;;;;;;;;;5053291;28;20308;-62
2022/04/04 03:48:14;;;;;;;6.60;4.40;;;;;;;;;;5053580;28;20205;-61
2022/04/04 03:50:40;;;;;;;7.32;4.85;;;;;;;;;;5053459;28;20423;-61
2022/04/04 03:53:06;;;;;;;8.18;5.05;;;;;;;;;;5053633;28;20235;-62
2022/04/04 03:55:34;;;;;;;7.63;5.20;;;;;;;;;;5053330;28;20687;-61
2022/04/04 03:58:00;;;;;;;6.75;4.70;;;;;;;;;;5053375;28;20175;-61
2022/04/04 04:00:27;;;;;;;6.70;5.20;;;;;;;;;;5053223;28;20194;-64
2022/04/04 04:02:53;;;;;;;8.98;5.63;;;;;;;;;;5051098;28;20648;-76
2022/04/04 04:05:20;;;;;;;8.20;5.38;;;;;;;;;;5053159;28;20571;-74
2022/04/04 04:07:46;;;;;;;8.52;5.75;;;;;;;;;;5053239;28;20695;-61
2022/04/04 04:10:12;;;;;;;7.93;5.97;;;;;;;;;;5053263;28;20170;-61
2022/04/04 04:12:39;;;;;;;8.80;6.85;;;;;;;;;;5053296;28;20175;-76
2022/04/04 04:15:06;;;;;;;12.60;6.70;;;;;;;;;;5051930;28;20180;-69
2022/04/04 04:17:32;;;;;;;9.77;6.40;;;;;;;;;;5053205;28;20668;-62
2022/04/04 04:22:45;;;;;;;8.23;5.55;;;;;;;;;;5053215;28;20188;-68
2022/04/04 04:25:11;;;;;;;9.80;6.00;;;;;;;;;;5049878;28;20611;-73
2022/04/04 04:27:37;;;;;;;6.75;5.30;;;;;;;;;;5051921;28;20543;-63
2022/04/04 04:30:04;;;;;;;8.30;5.67;;;;;;;;;;5052520;28;20632;-64
2022/04/04 04:32:30;;;;;;;8.95;6.47;;;;;;;;;;5051058;28;20434;-76
2022/04/04 04:34:56;;;;;;;9.75;5.75;;;;;;;;;;5052291;28;20205;-75
2022/04/04 04:37:22;;;;;;;10.20;6.60;;;;;;;;;;5052810;28;20168;-75
2022/04/04 04:39:49;;;;;;;10.43;6.38;;;;;;;;;;5052427;28;20431;-76
2022/04/04 04:42:15;;;;;;;7.88;5.28;;;;;;;;;;5050109;28;20578;-80
2022/04/04 04:44:41;;;;;;;11.73;6.25;;;;;;;;;;5054150;28;20205;-75
2022/04/04 04:47:07;;;;;;;9.70;6.05;;;;;;;;;;5052994;28;20234;-78
2022/04/04 04:49:34;;;;;;;8.77;5.97;;;;;;;;;;5052143;28;20236;-77
2022/04/04 04:52:00;;;;;;;9.20;6.22;;;;;;;;;;5050776;28;20190;-63
2022/04/04 04:54:26;;;;;;;10.60;6.47;;;;;;;;;;5051978;28;20192;-76
2022/04/04 04:56:53;;;;;;;9.70;6.35;;;;;;;;;;5052228;28;20175;-78
2022/04/04 04:59:19;;;;;;;9.25;5.70;;;;;;;;;;5052409;28;20176;-77
2022/04/04 05:01:45;;;;;;;9.50;5.95;;;;;;;;;;5051285;28;20294;-66
2022/04/04 05:04:11;;;;;;;9.75;6.20;;;;;;;;;;5052045;28;20600;-62
2022/04/04 05:06:37;;;;;;;10.60;6.57;;;;;;;;;;5051786;28;20238;-73
2022/04/04 05:09:03;;;;;;;9.83;5.90;;;;;;;;;;5052406;28;20565;-71
2022/04/04 05:11:29;;;;;;;11.13;6.57;;;;;;;;;;5051913;28;20419;-78
2022/04/04 05:13:55;;;;;;;10.25;6.82;;;;;;;;;;5051688;28;20908;-78
2022/04/04 05:16:28;;;;;;;7.90;5.87;;;;;;;;;;5055858;28;20167;-76
2022/04/04 05:18:54;;;;;;;9.93;6.50;;;;;;;;;;5056305;28;20464;-76
2022/04/04 05:21:21;;;;;;;9.43;6.30;;;;;;;;;;5054547;28;20187;-69
2022/04/04 05:23:47;;;;;;;11.27;7.10;;;;;;;;;;5053641;28;20187;-63
2022/04/04 05:26:13;;;;;;;10.68;6.57;;;;;;;;;;5055607;28;20294;-66
2022/04/04 05:28:39;;;;;;;9.00;6.55;;;;;;;;;;5056020;28;20623;-62
2022/04/04 05:31:05;;;;;;;11.40;7.13;;;;;;;;;;5055652;28;20184;-79
2022/04/04 05:33:32;;;;;;;10.57;7.28;;;;;;;;;;5053254;28;20809;-62
2022/04/04 05:35:58;;;;;;;12.15;7.53;;;;;;;;;;5055638;28;20325;-80
2022/04/04 05:38:24;;;;;;;13.98;7.50;;;;;;;;;;5055684;28;20195;-66
2022/04/04 05:40:50;;;;;;;10.83;8.10;;;;;;;;;;5055729;28;20542;-75
2022/04/04 05:43:17;;;;;;;10.87;7.50;;;;;;;;;;5053048;28;20413;-77
2022/04/04 05:45:43;;;;;;;13.27;7.18;;;;;;;;;;5055202;28;20463;-67
2022/04/04 05:48:09;;;;;;;8.93;6.60;;;;;;;;;;5054334;28;20184;-76
2022/04/04 05:50:35;;;;;;;12.20;7.50;;;;;;;;;;5055343;28;20436;-69
2022/04/04 05:53:01;;;;;;;11.90;7.27;;;;;;;;;;5052885;28;20178;-80
2022/04/04 05:55:27;;;;;;;8.52;6.03;;;;;;;;;;5054881;28;20493;-86
2022/04/04 05:57:53;;;;;;;9.40;6.45;;;;;;;;;;5054274;28;20176;-65
2022/04/04 06:00:21;;;;;;;10.60;8.10;;;;;;;;;;5053167;28;20633;-66
2022/04/04 06:02:48;;;;;;;9.25;6.40;;;;;;;;;;5051849;28;20502;-72
2022/04/04 06:05:14;;;;;;;13.07;8.05;;;;;;;;;;5054607;28;20675;-72
2022/04/04 06:07:41;;;;;;;11.52;7.57;;;;;;;;;;5054553;28;20225;-72
2022/04/04 06:10:08;;;;;;;9.50;7.20;;;;;;;;;;5054271;28;20189;-65
2022/04/04 06:12:35;;;;;;;13.40;6.78;;;;;;;;;;5052663;28;20167;-81
2022/04/04 06:15:01;;;;;;;13.02;7.55;;;;;;;;;;5055448;28;20189;-77
2022/04/04 06:17:27;;;;;;;9.75;7.35;;;;;;;;;;5055801;28;20209;-71
2022/04/04 06:19:55;;;;;;;10.10;6.80;;;;;;;;;;5054735;28;20168;-69
2022/04/04 06:22:22;;;;;;;10.50;7.00;;;;;;;;;;5052839;28;20180;-68
2022/04/04 06:24:48;;;;;;;16.48;6.60;;;;;;;;;;5053811;28;20289;-74
2022/04/04 06:27:15;;;;;;;8.30;6.55;;;;;;;;;;5053316;28;20187;-67
2022/04/04 06:29:42;;;;;;;9.20;6.60;;;;;;;;;;5054128;28;20196;-74
2022/04/04 06:32:09;;;;;;;11.30;6.97;;;;;;;;;;5051925;28;20195;-69
2022/04/04 06:34:35;;;;;;;10.30;6.68;;;;;;;;;;5053993;28;20168;-70
2022/04/04 06:37:01;;;;;;;6.80;5.90;;;;;;;;;;5053882;28;20183;-81
2022/04/04 06:39:27;;;;;;;9.10;6.30;;;;;;;;;;5053967;28;20239;-73
2022/04/04 06:41:53;;;;;;;8.13;6.30;;;;;;;;;;5052301;28;20931;-71
2022/04/04 06:44:19;;;;;;;7.68;6.30;;;;;;;;;;5052625;28;20886;-75
2022/04/04 06:46:45;;;;;;;9.40;7.13;;;;;;;;;;5050016;28;20259;-73
2022/04/04 06:49:11;;;;;;;11.50;7.07;;;;;;;;;;5071714;28;20513;-74
2022/04/04 06:51:37;;;;;;;10.10;6.70;;;;;;;;;;5070350;28;20520;-72
2022/04/04 06:54:05;;;;;;;13.67;6.87;;;;;;;;;;5050539;28;20422;-75
2022/04/04 06:56:31;;;;;;;11.18;7.55;;;;;;;;;;5052661;28;20411;-72
2022/04/04 06:58:58;;;;;;;12.35;7.45;;;;;;;;;;5051610;28;20231;-70
2022/04/04 07:01:24;;;;;;;9.15;6.28;;;;;;;;;;5053663;28;20258;-73
2022/04/04 07:03:50;;;;;;;9.83;6.47;;;;;;;;;;5050837;28;20323;-73
2022/04/04 07:06:16;;;;;;;6.60;5.47;;;;;;;;;;5053426;28;20800;-75
2022/04/04 07:08:42;;;;;;;9.30;6.73;;;;;;;;;;5053238;28;20405;-77
2022/04/04 07:11:10;;;;;;;9.07;6.60;;;;;;;;;;5053600;28;20423;-69
2022/04/04 07:13:37;;;;;;;9.15;6.35;;;;;;;;;;5050910;28;20415;-80
2022/04/04 07:16:03;;;;;;;8.93;5.80;;;;;;;;;;5053968;28;20226;-74
2022/04/04 07:18:29;;;;;;;8.80;6.63;;;;;;;;;;5053789;28;20178;-72
2022/04/04 07:20:55;;;;;;;14.23;6.57;;;;;;;;;;5053806;28;20168;-82
2022/04/04 07:23:21;;;;;;;7.20;5.47;;;;;;;;;;5051524;28;20905;-75
2022/04/04 07:25:48;;;;;;;11.90;6.13;;;;;;;;;;5053483;28;20968;-81
2022/04/04 07:28:14;;;;;;;9.73;5.80;;;;;;;;;;5053198;28;20511;-72
2022/04/04 07:30:40;;;;;;;11.80;6.33;;;;;;;;;;5053583;28;20513;-74
2022/04/04 07:33:08;;;;;;;9.83;5.90;;;;;;;;;;5050940;28;20418;-65
2022/04/04 07:35:34;;;;;;;9.07;6.43;;;;;;;;;;5053616;28;20420;-75
2022/04/04 07:38:00;;;;;;;9.10;5.90;;;;;;;;;;5053202;28;20800;-73
2022/04/04 07:40:27;;;;;;;9.80;6.50;;;;;;;;;;5052473;28;20396;-64
2022/04/04 07:42:54;;;;;;;9.93;7.00;;;;;;;;;;5051236;28;20427;-73
2022/04/04 07:45:20;;;;;;;9.77;6.60;;;;;;;;;;5049750;28;20957;-65
2022/04/04 07:47:47;;;;;;;7.50;6.03;;;;;;;;;;5051236;28;20908;-77
2022/04/04 07:50:14;;;;;;;8.87;6.80;;;;;;;;;;5051145;28;20667;-77
2022/04/04 07:52:40;;;;;;;10.57;6.20;;;;;;;;;;5051309;28;20509;-78
2022/04/04 07:55:07;;;;;;;10.60;6.47;;;;;;;;;;5051749;28;20419;-79
2022/04/04 07:57:33;;;;;;;9.80;6.17;;;;;;;;;;5053188;28;20411;-78
2022/04/04 08:00:00;;;;;;;8.43;6.33;;;;;;;;;;5053069;28;20447;-80
2022/04/04 08:02:26;;;;;;;10.23;6.70;;;;;;;;;;5053377;28;20397;-72
2022/04/04 08:04:52;;;;;;;8.87;6.43;;;;;;;;;;5052916;28;20839;-75
2022/04/04 08:07:19;;;;;;;10.13;6.20;;;;;;;;;;5053321;28;20446;-80
2022/04/04 08:09:46;;;;;;;9.60;6.50;;;;;;;;;;5053073;28;20410;-80
2022/04/04 08:12:12;;;;;;;12.80;6.77;;;;;;;;;;5053171;28;20429;-80
2022/04/04 08:14:39;;;;;;;10.17;6.53;;;;;;;;;;5053212;28;20885;-79
2022/04/04 08:17:05;;;;;;;9.10;6.30;;;;;;;;;;5053095;28;20415;-81
2022/04/04 08:19:32;;;;;;;9.43;6.50;;;;;;;;;;5051783;28;20421;-80
2022/04/04 08:21:58;;;;;;;10.53;6.93;;;;;;;;;;5053184;28;20475;-81
2022/04/04 08:24:24;;;;;;;10.60;6.80;;;;;;;;;;5053143;28;20406;-82
2022/04/04 08:26:50;;;;;;;10.80;6.57;;;;;;;;;;5052849;28;20975;-81
2022/04/04 08:29:16;;;;;;;9.73;6.70;;;;;;;;;;5052920;28;20793;-83
2022/04/04 08:31:42;;;;;;;10.27;7.30;;;;;;;;;;5053146;28;20418;-83
2022/04/04 08:34:08;;;;;;;10.07;6.73;;;;;;;;;;5053083;28;20438;-78
2022/04/04 08:36:34;;;;;;;11.47;7.37;;;;;;;;;;5053092;28;20413;-83
2022/04/04 08:39:00;;;;;;;9.97;7.10;;;;;;;;;;5052963;28;20893;-82
2022/04/04 08:41:29;;;;;;;15.87;8.03;;;;;;;;;;5052974;28;20421;-84
2022/04/04 08:43:58;;;;;;;10.90;6.67;;;;;;;;;;5053179;28;20459;-84
2022/04/04 08:46:24;;;;;;;9.73;7.23;;;;;;;;;;5052923;28;20557;-84
2022/04/04 08:48:52;;;;;;;9.60;7.47;;;;;;;;;;5053470;28;20409;-82
2022/04/04 08:51:18;;;;;;;11.40;7.60;;;;;;;;;;5057041;28;20939;-82
2022/04/04 08:53:44;;;;;;;9.90;7.93;;;;;;;;;;5056955;28;20402;-84
2022/04/04 08:56:11;;;;;;;9.53;6.90;;;;;;;;;;5056919;28;20409;-84
2022/04/04 08:58:37;;;;;;;13.60;7.00;;;;;;;;;;5056854;28;20479;-81
2022/04/04 09:01:04;;;;;;;10.67;6.77;;;;;;;;;;5056897;28;20486;-81
2022/04/04 09:03:31;;;;;;;8.00;6.57;;;;;;;;;;5056518;28;20480;-83
2022/04/04 09:06:03;;;;;;;8.30;6.20;;;;;;;;;;5056540;28;20471;-83
2022/04/04 09:08:29;;;;;;;9.43;6.10;;;;;;;;;;5056583;28;20441;-83
2022/04/04 09:10:56;;;;;;;10.00;6.33;;;;;;;;;;5056585;28;20398;-78
2022/04/04 09:13:24;;;;;;;7.20;6.50;;;;;;;;;;5056595;28;20910;-82
2022/04/04 09:15:50;;;;;;;7.90;6.93;;;;;;;;;;5056669;28;20399;-80
2022/04/04 09:18:16;;;;;;;9.23;6.60;;;;;;;;;;5055235;28;20418;-81
2022/04/04 09:20:52;;;;;;;8.00;6.20;;;;;;;;;;5056559;28;20399;-81
2022/04/04 09:23:18;;;;;;;7.97;6.70;;;;;;;;;;5056300;28;20418;-81
2022/04/04 09:25:45;;;;;;;8.10;6.10;;;;;;;;;;5056201;28;20500;-77
2022/04/04 09:28:15;;;;;;;6.37;5.70;;;;;;;;;;5056285;28;20402;-80
2022/04/04 09:30:42;;;;;;;9.00;6.43;;;;;;;;;;5056089;28;20460;-77
2022/04/04 09:33:08;;;;;;;8.20;6.60;;;;;;;;;;5056220;28;20467;-79
2022/04/04 09:35:44;;;;;;;8.50;6.23;;;;;;;;;;5056120;28;20419;-78
2022/04/04 09:38:14;;;;;;;16.50;6.80;;;;;;;;;;5056160;28;20404;-72
2022/04/04 09:40:40;;;;;;;8.10;6.70;;;;;;;;;;5055919;28;20405;-75
2022/04/04 09:43:06;;;;;;;8.37;6.93;;;;;;;;;;5056063;28;20403;-78
2022/04/04 09:45:32;;;;;;;11.83;6.63;;;;;;;;;;5055710;28;20948;-78
2022/04/04 09:47:59;;;;;;;8.67;7.07;;;;;;;;;;5055931;28;20406;-78
2022/04/04 09:50:34;;;;;;;14.73;6.97;;;;;;;;;;5055816;28;20394;-77
2022/04/04 09:53:01;;;;;;;8.33;6.70;;;;;;;;;;5055902;28;20445;-78
2022/04/04 09:55:28;;;;;;;8.47;6.93;;;;;;;;;;5054471;28;20419;-77
2022/04/04 09:57:54;;;;;;;10.10;6.70;;;;;;;;;;5055727;28;20406;-77
2022/04/04 10:00:21;;;;;;;9.50;7.10;;;;;;;;;;5055155;28;20842;-76
2022/04/04 10:02:47;;;;;;;9.47;7.30;;;;;;;;;;5054995;28;20437;-69
2022/04/04 10:05:13;;;;;;;9.80;7.43;;;;;;;;;;5054072;28;20470;-69
2022/04/04 10:07:40;;;;;;;8.53;6.80;;;;;;;;;;5055575;28;20403;-76
2022/04/04 10:10:06;;;;;;;9.80;6.90;;;;;;;;;;5055512;28;20402;-79
2022/04/04 10:12:34;;;;;;;11.20;7.10;;;;;;;;;;5055650;28;21000;-79
2022/04/04 10:15:03;;;;;;;8.30;6.83;;;;;;;;;;5055312;28;20534;-76
2022/04/04 10:17:30;;;;;;;10.60;6.80;;;;;;;;;;5055290;28;20411;-77
2022/04/04 10:19:57;;;;;;;9.00;6.73;;;;;;;;;;5055170;28;20426;-79
2022/04/04 10:22:24;;;;;;;8.90;7.10;;;;;;;;;;5055345;28;20418;-77
2022/04/04 10:24:50;;;;;;;10.73;8.40;;;;;;;;;;5054933;28;20415;-78
2022/04/04 10:27:20;;;;;;;9.33;7.30;;;;;;;;;;5055028;28;20421;-76
2022/04/04 10:29:47;;;;;;;8.60;7.10;;;;;;;;;;5054795;28;20447;-79
2022/04/04 10:32:28;;;;;;;9.87;7.60;;;;;;;;;;5054990;28;20417;-75
2022/04/04 10:34:55;;;;;;;13.50;7.97;;;;;;;;;;5055058;28;20498;-78
2022/04/04 10:37:25;;;;;;;7.50;6.70;;;;;;;;;;5054857;28;20427;-78
2022/04/04 10:39:52;;;;;;;8.90;7.20;;;;;;;;;;5054923;28;20398;-77
2022/04/04 10:42:26;;;;;;;9.13;7.43;;;;;;;;;;5054826;28;20415;-77
2022/04/04 10:45:12;;;;;;;8.43;6.60;;;;;;;;;;5054552;28;20409;-78
2022/04/04 10:47:42;;;;;;;9.40;7.30;;;;;;;;;;5054804;28;20408;-78
2022/04/04 10:50:17;;;;;;;13.23;7.93;;;;;;;;;;5054654;28;20485;-76
2022/04/04 10:52:44;;;;;;;7.50;6.70;;;;;;;;;;5054701;28;20440;-77
2022/04/04 10:55:25;;;;;;;6.73;6.03;;;;;;;;;;5054542;28;20434;-77
2022/04/04 10:57:52;;;;;;;6.83;5.90;;;;;;;;;;5053174;28;20818;-78
2022/04/04 11:00:19;;;;;;;6.87;6.17;;;;;;;;;;5054347;28;20435;-78
2022/04/04 11:02:46;;;;;;;6.23;5.63;;;;;;;;;;5054178;28;20520;-78
2022/04/04 11:08:06;;;;;;;7.53;6.17;;;;;;;;;;5054383;28;20895;-79
2022/04/04 11:10:41;;;;;;;7.10;5.90;;;;;;;;;;5054305;28;20397;-75
2022/04/04 11:13:08;;;;;;;7.10;6.40;;;;;;;;;;5053860;28;20515;-77
2022/04/04 11:15:41;;;;;;;8.63;6.20;;;;;;;;;;5054172;28;20394;-78
2022/04/04 11:18:07;;;;;;;7.90;5.97;;;;;;;;;;5054208;28;20449;-77
2022/04/04 11:20:33;;;;;;;6.70;6.00;;;;;;;;;;5052869;28;21380;-78
2022/04/04 11:23:11;;;;;;;7.30;6.27;;;;;;;;;;5054028;28;20898;-78
2022/04/04 11:25:38;;;;;;;6.07;5.47;;;;;;;;;;5053826;28;20800;-77
2022/04/04 11:28:05;;;;;;;6.67;5.40;;;;;;;;;;5053841;28;20968;-78
2022/04/04 11:30:31;;;;;;;6.70;5.93;;;;;;;;;;5053780;28;20423;-77
2022/04/04 11:32:59;;;;;;;6.20;5.60;;;;;;;;;;5053880;28;20404;-79
2022/04/04 11:35:27;;;;;;;6.17;5.57;;;;;;;;;;5053858;28;20393;-77
2022/04/04 11:38:06;;;;;;;7.73;5.60;;;;;;;;;;5053854;28;20464;-78
2022/04/04 11:40:38;;;;;;;8.73;5.97;;;;;;;;;;5052500;28;20941;-78
2022/04/04 11:43:07;;;;;;;6.67;6.07;;;;;;;;;;5053683;28;20447;-77
2022/04/04 11:45:39;;;;;;;7.70;6.30;;;;;;;;;;5053398;28;20457;-77
2022/04/04 11:48:14;;;;;;;6.73;5.20;;;;;;;;;;5053627;28;20890;-78
2022/04/04 11:50:42;;;;;;;9.10;5.57;;;;;;;;;;5053695;28;20397;-75
2022/04/04 11:53:09;;;;;;;6.13;5.43;;;;;;;;;;5053563;28;20415;-78
2022/04/04 11:55:37;;;;;;;11.97;7.03;;;;;;;;;;5053412;28;20891;-78
2022/04/04 11:58:09;;;;;;;6.00;5.10;;;;;;;;;;5053489;28;20458;-77
2022/04/04 12:00:37;;;;;;;6.50;5.83;;;;;;;;;;5053277;28;20931;-78
2022/04/04 12:03:13;;;;;;;6.90;5.90;;;;;;;;;;5053360;28;20464;-78
2022/04/04 12:05:42;;;;;;;8.17;5.70;;;;;;;;;;5053118;28;20456;-78
2022/04/04 12:08:09;;;;;;;7.97;5.70;;;;;;;;;;5053162;28;20421;-78
2022/04/04 12:10:37;;;;;;;11.47;5.23;;;;;;;;;;5053213;28;20401;-78
2022/04/04 12:13:03;;;;;;;6.50;5.57;;;;;;;;;;5053235;28;20546;-78
2022/04/04 12:15:31;;;;;;;8.43;6.20;;;;;;;;;;5053240;28;20486;-78
2022/04/04 12:17:57;;;;;;;7.80;5.43;;;;;;;;;;5053454;28;20775;-77
2022/04/04 12:20:23;;;;;;;6.60;6.00;;;;;;;;;;5053058;28;20413;-76
2022/04/04 12:25:34;;;;;;;8.50;6.40;;;;;;;;;;5052562;28;20606;-76
2022/04/04 12:28:01;;;;;;;9.43;5.27;;;;;;;;;;5053126;28;20412;-77
2022/04/04 12:30:30;;;;;;;5.67;5.13;;;;;;;;;;5052996;28;20985;-72
2022/04/04 12:33:06;;;;;;;8.70;5.50;;;;;;;;;;5052908;28;20404;-77
2022/04/04 12:35:33;;;;;;;8.13;5.73;;;;;;;;;;5052934;28;20413;-75
2022/04/04 12:37:59;;;;;;;6.70;6.00;;;;;;;;;;5053091;28;20453;-74
2022/04/04 12:40:28;;;;;;;8.60;5.43;;;;;;;;;;5052923;28;20456;-72
2022/04/04 12:43:05;;;;;;;6.37;5.70;;;;;;;;;;5052849;28;20397;-76
2022/04/04 12:45:32;;;;;;;6.30;5.70;;;;;;;;;;5052688;28;20491;-75
2022/04/04 12:48:00;;;;;;;7.10;5.40;;;;;;;;;;5051627;28;20457;-79
2022/04/04 12:50:37;;;;;;;8.20;6.00;;;;;;;;;;5052719;28;20398;-77
2022/04/04 12:53:04;;;;;;;7.37;6.20;;;;;;;;;;5052765;28;20421;-69
2022/04/04 12:55:30;;;;;;;8.60;6.90;;;;;;;;;;5052810;28;20930;-70
2022/04/04 12:58:14;;;;;;;9.10;6.90;;;;;;;;;;5052690;28;20418;-76
2022/04/04 13:00:40;;;;;;;9.30;6.90;;;;;;;;;;5052583;28;20417;-71
2022/04/04 13:03:23;;;;;;;7.70;6.13;;;;;;;;;;5051139;28;20469;-76
2022/04/04 13:05:51;;;;;;;12.47;6.30;;;;;;;;;;5052386;28;20975;-65
2022/04/04 13:08:18;;;;;;;10.53;6.67;;;;;;;;;;5052644;28;20919;-74
2022/04/04 13:11:00;;;;;;;7.90;6.50;;;;;;;;;;5052582;28;20401;-70
2022/04/04 13:13:26;;;;;;;9.70;6.23;;;;;;;;;;5052466;28;20448;-64
2022/04/04 13:15:52;;;;;;;7.13;6.43;;;;;;;;;;5052487;28;20429;-77
2022/04/04 13:18:18;;;;;;;6.23;5.57;;;;;;;;;;5052198;28;20444;-72
2022/04/04 13:20:43;;;;;;;6.80;6.07;;;;;;;;;;5052584;28;20838;-75
2022/04/04 13:23:10;;;;;;;7.50;6.80;;;;;;;;;;5052442;28;20409;-66
2022/04/04 13:25:36;;;;;;;8.33;6.90;;;;;;;;;;5052033;28;20461;-63
2022/04/04 13:28:02;;;;;;;7.33;6.63;;;;;;;;;;5052202;28;20402;-75
2022/04/04 13:30:28;;;;;;;9.30;6.80;;;;;;;;;;5052120;28;20440;-75
2022/04/04 13:32:54;;;;;;;8.17;6.40;;;;;;;;;;5052275;28;20472;-73
2022/04/04 13:35:20;;;;;;;8.07;6.00;;;;;;;;;;5053232;28;20872;-65
2022/04/04 13:37:46;;;;;;;9.60;7.67;;;;;;;;;;5056002;28;20504;-75
2022/04/04 13:40:12;;;;;;;6.47;5.80;;;;;;;;;;5055866;28;20468;-75
2022/04/04 13:42:38;;;;;;;7.93;6.63;;;;;;;;;;5055975;28;20440;-75
2022/04/04 13:45:05;;;;;;;8.37;6.50;;;;;;;;;;5055743;28;20468;-72
2022/04/04 13:47:31;;;;;;;9.23;6.77;;;;;;;;;;5055809;28;20880;-76
2022/04/04 13:49:57;;;;;;;7.17;6.20;;;;;;;;;;5055883;28;20459;-76
2022/04/04 13:52:23;;;;;;;9.50;6.97;;;;;;;;;;5055822;28;20441;-76
2022/04/04 13:54:49;;;;;;;9.10;6.83;;;;;;;;;;5055870;28;20421;-74
2022/04/04 13:57:15;;;;;;;6.60;5.80;;;;;;;;;;5055907;28;20405;-76
2022/04/04 13:59:41;;;;;;;11.27;6.43;;;;;;;;;;5055601;28;20503;-76
2022/04/04 14:02:07;;;;;;;9.40;6.47;;;;;;;;;;5055676;28;20433;-77
2022/04/04 14:04:37;;;;;;;8.40;6.57;;;;;;;;;;5055443;28;20453;-75
2022/04/04 14:07:06;;;;;;;8.47;6.00;;;;;;;;;;5055712;28;20903;-77
2022/04/04 14:09:33;;;;;;;7.17;5.60;;;;;;;;;;5055650;28;20416;-77
2022/04/04 14:11:59;;;;;;;9.30;6.47;;;;;;;;;;5055502;28;20398;-77
2022/04/04 14:14:26;;;;;;;7.47;5.73;;;;;;;;;;5054284;28;20420;-77
2022/04/04 14:16:52;;;;;;;9.47;7.30;;;;;;;;;;5055293;28;20760;-76
2022/04/04 14:19:18;;;;;;;9.13;6.43;;;;;;;;;;5055442;28;20407;-77
2022/04/04 14:21:44;;;;;;;7.63;6.00;;;;;;;;;;5055365;28;20555;-78
2022/04/04 14:24:10;;;;;;;7.77;6.00;;;;;;;;;;5055229;28;20969;-76
2022/04/04 14:26:36;;;;;;;7.00;6.30;;;;;;;;;;5055147;28;20469;-77
2022/04/04 14:29:03;;;;;;;7.00;6.10;;;;;;;;;;5055047;28;20487;-69
2022/04/04 14:31:29;;;;;;;7.83;6.90;;;;;;;;;;5055141;28;20786;-77
2022/04/04 14:34:00;;;;;;;10.30;7.13;;;;;;;;;;5055086;28;20386;-76
2022/04/04 14:36:26;;;;;;;7.23;6.43;;;;;;;;;;5055142;28;20421;-76
2022/04/04 14:38:52;;;;;;;7.80;6.10;;;;;;;;;;5055007;28;20451;-77
2022/04/04 14:41:19;;;;;;;8.10;6.30;;;;;;;;;;5055037;28;20405;-76
2022/04/04 14:43:45;;;;;;;8.47;6.33;;;;;;;;;;5055011;28;20492;-77
2022/04/04 14:46:12;;;;;;;6.60;5.73;;;;;;;;;;5054606;28;20469;-76
2022/04/04 14:48:44;;;;;;;9.03;6.80;;;;;;;;;;5054437;28;20404;-77